Time;durP1;ratioP1;P1;durP2;ratioP2;P2;SDS_P1;SDS_P2;PMS_P1;PMS_P2;Temp;Humidity;BMP_temperature;BMP_pressure;BME280_temperature;BME280_humidity;BME280_pressure;Samples;Min_cycle;Max_cycle;Signal;HPM_P1;HPM_P2
2021/09/21 00:00:45;;;;;;;;;;;11.10;99.90;;;10.28;94.80;96266.88;10610239;28;2052;-74
2021/09/21 00:05:48;;;;;;;;;;;11.10;99.90;;;10.52;93.27;96264.59;10605442;28;1853;-75
2021/09/21 00:10:51;;;;;;;;;;;11.30;99.90;;;10.66;91.62;96263.06;10589970;27;1509;-75
2021/09/21 00:15:54;;;;;;;;;;;11.50;99.90;;;10.74;90.23;96256.34;10581730;27;1960;-75
2021/09/21 00:20:57;;;;;;;;;;;11.60;99.90;;;10.87;88.93;96258.56;10574705;27;1948;-75
2021/09/21 00:26:00;;;;;;;;;;;11.80;99.90;;;11.01;87.67;96253.53;10556252;28;2045;-75
2021/09/21 00:31:07;;;;;;;;;;;11.90;99.90;;;11.16;87.48;96244.69;10569116;28;2115;-75
2021/09/21 00:36:10;;;;;;;;;;;12.00;99.90;;;11.18;86.59;96248.69;10559838;28;2028;-75
2021/09/21 00:41:13;;;;;;;;;;;12.10;99.90;;;11.28;85.80;96251.44;10551220;27;1955;-75
2021/09/21 00:46:17;;;;;;;;;;;12.20;99.90;;;11.22;84.47;96255.19;10592985;27;2075;-75
2021/09/21 00:51:21;;;;;;;;;;;12.20;99.90;;;11.33;83.80;96254.13;10604362;27;2088;-75
2021/09/21 00:56:23;;;;;;;;;;;12.20;99.90;;;11.36;82.88;96256.28;10598517;27;2141;-73
2021/09/21 01:01:26;;;;;;;;;;;12.30;99.90;;;11.30;81.83;96257.34;10592618;28;2056;-77
2021/09/21 01:06:30;;;;;;;;;;;12.30;99.90;;;11.31;82.29;96248.19;10564213;28;2000;-74
2021/09/21 01:11:33;;;;;;;;;;;12.30;99.90;;;11.42;80.76;96253.59;10558868;28;2147;-74
2021/09/21 01:16:37;;;;;;;;;;;12.30;99.90;;;11.37;79.98;96252.50;10566566;27;2206;-74
2021/09/21 01:21:41;;;;;;;;;;;12.30;99.90;;;11.20;79.31;96257.34;10546699;28;2184;-74
2021/09/21 01:26:50;;;;;;;;;;;12.40;99.90;;;10.88;82.89;96259.38;10558166;27;2170;-74
2021/09/21 01:31:54;;;;;;;;;;;12.10;99.90;;;11.10;81.59;96251.91;10546655;28;2117;-74
2021/09/21 01:36:57;;;;;;;;;;;12.00;99.90;;;11.01;81.24;96264.28;10530303;28;2231;-73
2021/09/21 01:42:00;;;;;;;;;;;12.00;99.90;;;10.80;83.79;96266.88;10551271;28;2090;-74
2021/09/21 01:47:04;;;;;;;;;;;11.90;99.90;;;10.97;83.65;96268.56;10556033;28;2086;-74
2021/09/21 01:52:11;;;;;;;;;;;11.90;99.90;;;11.03;83.67;96273.69;10565796;28;2241;-75
2021/09/21 02:02:35;;;;;;;;;;;12.00;99.90;;;11.15;78.08;96286.91;10562915;28;2332;-74
2021/09/21 02:07:38;;;;;;;;;;;12.10;99.90;;;11.13;80.64;96283.66;10563370;28;2064;-74
2021/09/21 02:12:41;;;;;;;;;;;12.10;99.90;;;11.24;80.86;96279.94;10553238;27;2162;-74
2021/09/21 02:17:44;;;;;;;;;;;12.20;99.90;;;10.97;84.61;96284.69;10555327;28;2037;-75
2021/09/21 02:22:47;;;;;;;;;;;12.10;99.90;;;10.94;86.02;96290.59;10564920;28;2181;-75
2021/09/21 02:27:50;;;;;;;;;;;12.00;99.90;;;10.97;86.16;96290.09;10553600;27;2115;-75
2021/09/21 02:32:53;;;;;;;;;;;11.90;99.90;;;10.99;86.90;96287.94;10558429;28;2178;-74
2021/09/21 02:37:55;;;;;;;;;;;11.90;99.90;;;10.87;88.74;96298.91;10555155;27;1921;-74
2021/09/21 02:42:58;;;;;;;;;;;11.90;99.90;;;10.52;91.70;96307.59;10549578;28;2180;-74
2021/09/21 02:48:01;;;;;;;;;;;11.70;99.90;;;10.54;92.21;96297.41;10554688;28;2103;-74
2021/09/21 02:53:04;;;;;;;;;;;11.60;99.90;;;10.53;88.63;96304.66;10558848;28;2194;-73
2021/09/21 02:58:07;;;;;;;;;;;11.60;99.90;;;10.53;89.80;96318.09;10560104;28;2060;-75
2021/09/21 03:03:10;;;;;;;;;;;11.50;99.90;;;10.58;89.40;96325.38;10554990;28;2159;-74
2021/09/21 03:08:15;;;;;;;;;;;11.60;99.90;;;10.59;89.36;96315.44;10554794;28;2141;-74
2021/09/21 03:13:28;;;;;;;;;;;11.50;99.90;;;10.62;90.26;96315.72;10567832;28;2108;-74
2021/09/21 03:18:31;;;;;;;;;;;11.60;99.90;;;10.55;90.71;96323.19;10557280;28;2083;-74
2021/09/21 03:23:34;;;;;;;;;;;11.60;99.90;;;10.74;89.97;96323.59;10566840;27;2098;-74
2021/09/21 03:28:37;;;;;;;;;;;11.70;99.90;;;10.86;90.04;96321.50;10555443;28;2200;-75
2021/09/21 03:33:39;;;;;;;;;;;11.80;99.90;;;10.88;89.15;96337.34;10566459;28;2075;-74
2021/09/21 03:38:47;;;;;;;;;;;11.90;99.90;;;10.72;89.21;96331.91;10565859;27;2147;-74
2021/09/21 03:43:49;;;;;;;;;;;11.80;99.90;;;10.81;90.62;96337.59;10579340;28;2154;-74
2021/09/21 03:48:54;;;;;;;;;;;11.70;99.90;;;10.98;89.95;96330.16;10578812;28;2167;-74
2021/09/21 03:53:57;;;;;;;;;;;11.90;99.90;;;11.09;89.46;96344.47;10566048;27;2122;-75
2021/09/21 03:59:00;;;;;;;;;;;12.00;99.90;;;11.14;88.85;96335.63;10571075;28;2141;-74
2021/09/21 04:04:02;;;;;;;;;;;12.10;99.90;;;11.15;89.16;96329.97;10564041;28;1961;-74
2021/09/21 04:09:05;;;;;;;;;;;12.10;99.90;;;11.21;88.52;96337.00;10568485;28;2126;-74
2021/09/21 04:14:08;;;;;;;;;;;12.10;99.90;;;11.14;87.39;96339.13;10565326;28;2044;-75
2021/09/21 04:19:11;;;;;;;;;;;12.10;99.90;;;11.14;86.90;96344.50;10559626;28;2186;-74
2021/09/21 04:24:14;;;;;;;;;;;12.10;99.90;;;11.03;87.15;96326.69;10564968;28;2165;-74
2021/09/21 04:29:17;;;;;;;;;;;12.10;99.90;;;11.03;87.44;96327.50;10568666;28;2254;-75
2021/09/21 04:34:19;;;;;;;;;;;12.00;99.90;;;11.16;87.46;96347.72;10569112;28;2173;-74
2021/09/21 04:39:22;;;;;;;;;;;12.10;99.90;;;11.31;87.00;96352.34;10569534;27;2062;-75
2021/09/21 04:44:25;;;;;;;;;;;12.10;99.90;;;11.27;86.81;96354.78;10560317;27;2215;-75
2021/09/21 04:49:28;;;;;;;;;;;12.30;99.90;;;11.28;87.11;96366.34;10566148;28;2405;-74
2021/09/21 04:54:31;;;;;;;;;;;12.30;99.90;;;11.19;86.65;96378.66;10565505;28;2045;-74
2021/09/21 04:59:34;;;;;;;;;;;12.30;99.90;;;11.04;87.06;96376.72;10563286;28;2192;-74
2021/09/21 05:04:36;;;;;;;;;;;12.20;99.90;;;11.06;87.86;96375.38;10563753;28;2140;-75
2021/09/21 05:09:39;;;;;;;;;;;12.10;99.90;;;11.11;87.28;96390.75;10569356;27;1998;-75
2021/09/21 05:14:42;;;;;;;;;;;12.10;99.90;;;10.83;90.43;96395.44;10547887;28;2088;-74
2021/09/21 05:19:45;;;;;;;;;;;12.00;99.90;;;10.93;90.28;96401.94;10564186;28;1968;-74
2021/09/21 05:24:48;;;;;;;;;;;11.90;99.90;;;11.05;90.09;96397.19;10562542;28;2049;-75
2021/09/21 05:29:51;;;;;;;;;;;12.00;99.90;;;11.00;90.24;96416.78;10560721;28;2052;-74
2021/09/21 05:34:54;;;;;;;;;;;12.10;99.90;;;10.92;91.76;96421.84;10576113;27;1838;-73
2021/09/21 05:39:56;;;;;;;;;;;11.90;99.90;;;10.75;93.86;96433.59;10577065;27;2171;-72
2021/09/21 05:44:59;;;;;;;;;;;11.80;99.90;;;10.63;95.23;96451.78;10561036;28;2048;-74
2021/09/21 05:50:15;;;;;;;;;;;11.70;99.90;;;10.73;95.32;96446.47;10548089;27;2065;-73
2021/09/21 05:55:17;;;;;;;;;;;11.70;99.90;;;10.82;95.05;96461.06;10550760;28;2063;-73
2021/09/21 06:00:20;;;;;;;;;;;11.80;99.90;;;11.07;94.78;96465.00;10538463;28;2031;-73
2021/09/21 06:05:23;;;;;;;;;;;11.90;99.90;;;11.14;93.41;96479.03;10562456;28;1782;-74
2021/09/21 06:10:27;;;;;;;;;;;12.10;99.90;;;10.90;95.58;96492.06;10546095;28;2046;-73
2021/09/21 06:15:31;;;;;;;;;;;11.90;99.90;;;10.65;98.19;96498.03;10551279;28;1860;-77
2021/09/21 06:20:36;;;;;;;;;;;11.80;99.90;;;10.69;98.73;96498.34;10555523;28;2012;-77
2021/09/21 06:25:39;;;;;;;;;;;11.80;99.90;;;10.67;99.05;96501.28;10559988;28;2039;-77
2021/09/21 06:30:42;;;;;;;;;;;11.70;99.90;;;11.19;96.12;96505.97;10545956;28;2006;-79
2021/09/21 06:35:45;;;;;;;;;;;11.90;99.90;;;11.00;96.90;96515.50;10551604;28;2016;-74
2021/09/21 06:40:48;;;;;;;;;;;12.00;99.90;;;11.18;93.39;96520.50;10564088;28;1974;-74
2021/09/21 06:45:55;;;;;;;;;;;12.10;99.90;;;11.28;91.58;96515.19;10548438;28;1992;-71
2021/09/21 06:50:58;;;;;;;;;;;12.20;99.90;;;11.25;90.81;96507.59;10549847;28;1846;-71
2021/09/21 06:56:01;;;;;;;;;;;12.30;99.90;;;11.12;91.08;96513.44;10559547;28;2064;-71
2021/09/21 07:01:04;;;;;;;;;;;12.10;99.90;;;11.29;90.58;96532.94;10559698;28;1969;-71
2021/09/21 07:06:07;;;;;;;;;;;12.20;99.90;;;11.88;89.00;96521.97;10560964;28;2441;-72
2021/09/21 07:11:10;;;;;;;;;;;12.50;99.90;;;12.24;87.39;96524.00;10566835;27;2056;-72
2021/09/21 07:16:13;;;;;;;;;;;12.80;99.90;;;12.56;83.95;96526.50;10555571;28;2293;-72
2021/09/21 07:21:16;;;;;;;;;;;13.20;99.90;;;12.45;83.09;96515.66;10566762;27;2075;-73
2021/09/21 07:26:19;;;;;;;;;;;13.40;99.90;;;12.61;82.18;96529.19;10557544;27;2271;-73
2021/09/21 07:31:21;;;;;;;;;;;13.50;99.90;;;13.12;79.46;96540.00;10553716;27;1984;-73
2021/09/21 07:36:24;;;;;;;;;;;13.70;99.90;;;13.57;76.08;96546.47;10557731;28;2047;-72
2021/09/21 07:41:27;;;;;;;;;;;14.10;99.90;;;13.97;73.48;96551.75;10564455;28;2126;-72
2021/09/21 07:46:30;;;;;;;;;;;14.50;99.90;;;13.77;73.47;96558.03;10559033;28;2040;-72
2021/09/21 07:51:33;;;;;;;;;;;14.50;99.90;;;13.56;75.94;96555.66;10565929;28;1854;-71
2021/09/21 07:56:36;;;;;;;;;;;14.50;99.90;;;13.58;74.31;96558.88;10555211;27;1981;-77
2021/09/21 08:01:40;;;;;;;;;;;14.50;99.90;;;13.73;74.64;96575.03;10557947;28;1922;-76
2021/09/21 08:06:44;;;;;;;;;;;14.50;99.90;;;13.31;75.10;96591.59;10576886;27;1761;-77
2021/09/21 08:11:47;;;;;;;;;;;14.50;99.90;;;13.32;75.35;96596.72;10564066;28;2178;-77
2021/09/21 08:16:50;;;;;;;;;;;14.30;99.90;;;13.07;76.51;96604.78;10579418;27;1901;-78
2021/09/21 08:21:53;;;;;;;;;;;14.20;99.90;;;13.19;76.63;96602.63;10564490;27;2037;-76
2021/09/21 08:26:56;;;;;;;;;;;14.10;99.90;;;12.87;72.33;96609.09;10566703;27;2079;-77
2021/09/21 08:31:59;;;;;;;;;;;13.90;99.90;;;12.99;68.49;96609.66;10574146;27;1913;-78
2021/09/21 08:37:02;;;;;;;;;;;13.90;99.90;;;13.14;64.41;96616.13;10586049;27;2149;-76
2021/09/21 08:42:04;;;;;;;;;;;14.10;99.90;;;13.06;64.94;96622.88;10573721;28;1917;-78
2021/09/21 08:47:07;;;;;;;;;;;14.00;99.90;;;12.65;62.34;96621.97;10581092;27;2191;-76
2021/09/21 08:52:10;;;;;;;;;;;13.90;99.90;;;12.84;63.22;96624.97;10588188;28;2113;-79
2021/09/21 08:57:13;;;;;;;;;;;13.90;99.90;;;13.52;63.35;96631.81;10581397;28;1888;-77
2021/09/21 09:02:16;;;;;;;;;;;14.20;99.90;;;13.79;61.16;96631.50;10556056;28;2070;-78
2021/09/21 09:07:20;;;;;;;;;;;14.40;99.90;;;14.27;61.07;96631.13;10588579;28;1948;-80
2021/09/21 09:12:23;;;;;;;;;;;14.80;99.90;;;14.62;59.53;96621.25;10539891;28;2021;-78
2021/09/21 09:17:26;;;;;;;;;;;15.10;99.90;;;14.86;55.70;96623.03;10580725;28;1896;-75
2021/09/21 09:22:29;;;;;;;;;;;15.50;99.90;;;14.56;54.52;96634.81;10560427;27;2196;-74
2021/09/21 09:27:32;;;;;;;;;;;15.60;99.90;;;15.08;53.80;96636.16;10563246;28;2123;-74
2021/09/21 09:32:35;;;;;;;;;;;15.80;99.90;;;14.51;54.49;96647.56;10562754;27;1885;-74
2021/09/21 09:37:37;;;;;;;;;;;15.80;99.90;;;15.61;53.04;96633.59;10561907;27;2088;-74
2021/09/21 09:42:40;;;;;;;;;;;16.00;99.90;;;16.03;52.18;96634.84;10562857;27;1913;-73
2021/09/21 09:47:43;;;;;;;;;;;16.50;99.90;;;15.23;52.05;96653.41;10545033;28;2042;-73
2021/09/21 09:52:46;;;;;;;;;;;16.50;99.90;;;15.20;54.96;96653.94;10560592;28;2091;-74
2021/09/21 09:57:49;;;;;;;;;;;16.20;99.90;;;16.27;53.56;96644.88;10564347;27;2016;-73
2021/09/21 10:02:52;;;;;;;;;;;16.60;99.90;;;15.89;53.68;96640.13;10551180;28;1906;-73
2021/09/21 10:07:55;;;;;;;;;;;16.70;99.90;;;16.23;51.53;96643.88;10547101;28;2116;-76
2021/09/21 10:12:58;;;;;;;;;;;16.90;99.90;;;16.25;52.28;96649.81;10556380;28;1913;-76
2021/09/21 10:18:01;;;;;;;;;;;17.00;99.90;;;16.37;51.29;96642.06;10557735;28;2032;-75
2021/09/21 10:23:04;;;;;;;;;;;17.00;99.90;;;16.62;50.72;96635.53;10531000;28;1988;-76
2021/09/21 10:28:06;;;;;;;;;;;17.10;99.90;;;16.06;51.39;96638.88;10556189;28;2332;-75
2021/09/21 10:33:09;;;;;;;;;;;17.50;99.90;;;16.11;52.59;96636.13;10548600;28;2048;-75
2021/09/21 10:38:12;;;;;;;;;;;17.30;99.90;;;16.35;50.91;96636.09;10526284;28;2112;-76
2021/09/21 10:43:15;;;;;;;;;;;17.30;99.90;;;16.81;50.88;96643.72;10553820;28;1913;-76
2021/09/21 10:48:18;;;;;;;;;;;17.30;99.90;;;17.12;49.16;96634.06;10533258;28;2101;-76
2021/09/21 10:53:21;;;;;;;;;;;17.50;99.90;;;17.34;49.20;96647.03;10536939;28;1875;-79
2021/09/21 10:58:24;;;;;;;;;;;17.90;99.90;;;17.17;49.32;96641.31;10570926;28;1905;-78
2021/09/21 11:03:26;;;;;;;;;;;18.00;99.90;;;16.64;50.40;96655.84;10576053;28;1991;-77
2021/09/21 11:08:30;;;;;;;;;;;17.70;99.90;;;16.97;50.43;96648.63;10553125;28;2019;-76
2021/09/21 11:13:32;;;;;;;;;;;17.60;99.90;;;17.17;49.65;96642.09;10544906;28;2150;-77
2021/09/21 11:18:36;;;;;;;;;;;17.70;99.90;;;17.36;49.00;96650.25;10560984;28;1894;-77
2021/09/21 11:23:39;;;;;;;;;;;17.90;99.90;;;17.66;48.24;96650.88;10549862;28;2005;-80
2021/09/21 11:28:42;;;;;;;;;;;18.00;99.90;;;17.89;48.92;96651.88;10568051;28;2052;-78
2021/09/21 11:33:46;;;;;;;;;;;18.10;99.90;;;17.63;47.10;96648.75;10551480;28;2036;-76
2021/09/21 11:38:50;;;;;;;;;;;18.40;99.90;;;17.58;47.64;96638.78;10555383;28;2091;-76
2021/09/21 11:43:53;;;;;;;;;;;18.50;99.90;;;17.70;45.93;96646.47;10554958;28;2032;-77
2021/09/21 11:49:03;;;;;;;;;;;18.40;99.90;;;18.01;47.57;96638.59;10551604;27;1989;-77
2021/09/21 11:54:06;;;;;;;;;;;18.40;99.90;;;18.57;45.59;96629.34;10559157;27;2069;-73
2021/09/21 11:59:09;;;;;;;;;;;18.90;99.90;;;18.36;47.63;96629.75;10566785;28;1873;-75
2021/09/21 12:04:12;;;;;;;;;;;19.00;99.90;;;17.62;47.12;96631.63;10554399;27;2080;-74
2021/09/21 12:09:15;;;;;;;;;;;19.00;99.90;;;17.74;47.57;96629.25;10555007;27;1849;-74
2021/09/21 12:14:18;;;;;;;;;;;18.50;99.90;;;16.77;50.10;96620.97;10564200;27;2091;-75
2021/09/21 12:19:22;;;;;;;;;;;17.90;99.90;;;17.69;47.71;96625.81;10568391;27;2233;-74
2021/09/21 12:24:25;;;;;;;;;;;18.10;99.90;;;17.56;48.05;96616.53;10561837;27;2057;-75
2021/09/21 12:29:28;;;;;;;;;;;18.20;99.90;;;18.12;46.25;96618.25;10571152;27;2032;-74
2021/09/21 12:34:31;;;;;;;;;;;18.60;99.90;;;18.08;47.66;96609.91;10552918;28;1917;-75
2021/09/21 12:39:34;;;;;;;;;;;18.60;99.90;;;18.41;45.28;96619.88;10566093;28;2001;-75
2021/09/21 12:44:37;;;;;;;;;;;18.90;99.90;;;18.15;46.65;96628.53;10564926;28;2052;-75
2021/09/21 12:49:40;;;;;;;;;;;19.00;99.90;;;18.00;47.14;96626.91;10565548;27;2103;-75
2021/09/21 12:54:42;;;;;;;;;;;18.80;99.90;;;17.90;46.63;96627.09;10557921;28;2064;-77
2021/09/21 12:59:45;;;;;;;;;;;18.70;99.90;;;17.38;49.34;96639.09;10552305;28;1929;-78
2021/09/21 13:04:48;;;;;;;;;;;18.40;99.90;;;17.29;49.33;96633.50;10535691;28;2173;-77
2021/09/21 13:09:51;;;;;;;;;;;18.20;99.90;;;17.22;50.30;96627.66;10574531;27;2052;-78
2021/09/21 13:14:54;;;;;;;;;;;18.00;99.90;;;17.48;49.37;96625.34;10546461;27;2134;-76
2021/09/21 13:19:57;;;;;;;;;;;17.80;99.90;;;17.25;50.20;96638.75;10539220;28;2051;-80
2021/09/21 13:25:00;;;;;;;;;;;18.00;99.90;;;16.58;51.15;96638.00;10561935;27;2072;-76
2021/09/21 13:30:03;;;;;;;;;;;17.50;99.90;;;16.74;51.44;96634.03;10574462;28;2005;-76
2021/09/21 13:35:06;;;;;;;;;;;17.50;99.90;;;17.14;50.05;96631.84;10564247;27;2028;-78
2021/09/21 13:40:09;;;;;;;;;;;17.60;99.90;;;17.15;50.39;96633.44;10556599;27;2044;-76
2021/09/21 13:45:13;;;;;;;;;;;17.80;99.90;;;17.07;50.60;96631.41;10572466;27;2123;-75
2021/09/21 13:50:16;;;;;;;;;;;17.70;99.90;;;16.95;50.11;96628.31;10561582;28;2341;-75
2021/09/21 13:55:19;;;;;;;;;;;17.80;99.90;;;16.88;51.07;96628.69;10576013;27;1840;-80
2021/09/21 14:00:27;;;;;;;;;;;17.70;99.90;;;16.60;51.14;96627.66;10596228;28;1766;-75
2021/09/21 14:05:32;;;;;;;;;;;17.60;99.90;;;17.04;50.39;96629.25;10610005;27;1964;-77
2021/09/21 14:10:34;;;;;;;;;;;17.70;99.90;;;17.07;50.36;96625.97;10613897;27;1746;-78
2021/09/21 14:15:40;;;;;;;;;;;17.80;99.90;;;16.56;50.81;96632.06;10609818;27;1998;-77
2021/09/21 14:20:43;;;;;;;;;;;17.70;99.90;;;16.81;50.54;96632.88;10592849;27;1936;-78
2021/09/21 14:25:47;;;;;;;;;;;17.60;99.90;;;16.70;49.50;96633.00;10575047;27;2040;-78
2021/09/21 14:30:50;;;;;;;;;;;17.40;99.90;;;16.68;50.39;96640.59;10580504;28;1978;-78
2021/09/21 14:35:53;;;;;;;;;;;17.40;99.90;;;16.78;51.37;96633.44;10600610;27;2091;-77
2021/09/21 14:40:56;;;;;;;;;;;;;;;16.53;51.61;96632.63;10578970;28;2043;-78
2021/09/21 14:45:59;;;;;;;;;;;;;;;16.44;51.71;96621.63;10569746;28;1950;-79
2021/09/21 14:51:03;;;;;;;;;;;;;;;16.39;52.61;96615.44;10603730;28;1833;-79
2021/09/21 14:56:07;;;;;;;;;;;;;;;16.33;51.85;96624.75;10611303;28;1899;-79
2021/09/21 15:01:12;;;;;;;;;;;;;;;16.48;52.40;96621.88;10575071;28;1916;-78
2021/09/21 15:06:16;;;;;;;;;;;;;;;16.42;51.64;96631.16;10573392;28;1921;-79
2021/09/21 15:11:19;;;;;;;;;;;;;;;15.84;53.02;96625.78;10568583;28;2029;-78
2021/09/21 15:16:22;;;;;;;;;;;;;;;16.11;53.28;96630.69;10566836;28;2223;-79
2021/09/21 15:21:26;;;;;;;;;;;;;;;16.32;52.20;96632.06;10587664;27;2020;-77
2021/09/21 15:26:29;;;;;;;;;;;;;;;15.70;53.57;96638.41;10567662;27;2091;-78
2021/09/21 15:31:33;;;;;;;;;;;;;;;15.74;53.76;96623.22;10568906;28;2257;-79
2021/09/21 15:36:36;;;;;;;;;;;;;;;15.79;53.92;96620.44;10555209;28;2038;-79
2021/09/21 15:41:40;;;;;;;;;;;;;;;15.95;54.06;96633.56;10571279;28;1949;-79
2021/09/21 15:46:44;;;;;;;;;;;;;;;15.77;54.65;96636.16;10565476;27;2092;-80
2021/09/21 15:51:49;;;;;;;;;;;16.60;99.90;;;15.46;54.63;96636.44;10541343;28;1921;-80
2021/09/21 15:56:52;;;;;;;;;;;16.50;99.90;;;15.55;56.27;96659.09;10545197;27;2046;-80
2021/09/21 16:01:55;;;;;;;;;;;16.30;99.90;;;15.17;56.70;96651.81;10576585;28;2060;-80
2021/09/21 16:06:58;;;;;;;;;;;16.10;99.90;;;14.68;58.75;96652.63;10569328;28;1911;-79
2021/09/21 16:12:01;;;;;;;;;;;15.90;99.90;;;14.49;58.28;96666.78;10567919;28;2122;-80
2021/09/21 16:17:04;;;;;;;;;;;15.60;99.90;;;14.06;59.44;96657.44;10568539;28;2107;-81
2021/09/21 16:22:07;;;;;;;;;;;15.30;99.90;;;14.07;60.73;96659.03;10572005;28;2111;-81
2021/09/21 16:27:09;;;;;;;;;;;15.00;99.90;;;13.78;62.56;96646.09;10570275;28;2119;-80
2021/09/21 16:32:12;;;;;;;;;;;14.90;99.90;;;13.69;62.65;96657.75;10566377;28;2036;-80
2021/09/21 16:37:15;;;;;;;;;;;14.70;99.90;;;13.51;62.85;96664.50;10561513;28;2050;-80
2021/09/21 16:42:18;;;;;;;;;;;14.60;99.90;;;13.25;64.10;96664.50;10565879;28;1912;-80
2021/09/21 16:47:21;;;;;;;;;;;14.30;99.90;;;13.06;64.43;96666.06;10567052;28;2020;-80
2021/09/21 16:52:24;;;;;;;;;;;14.20;99.90;;;13.04;65.12;96664.69;10550737;28;1961;-80
2021/09/21 16:57:27;;;;;;;;;;;14.00;99.90;;;12.80;65.56;96673.28;10567977;28;2076;-79
2021/09/21 17:02:36;;;;;;;;;;;14.00;99.90;;;12.55;67.52;96678.59;10583657;27;1897;-80
2021/09/21 17:07:40;;;;;;;;;;;13.70;99.90;;;12.42;67.68;96671.81;10563894;27;2020;-80
2021/09/21 17:12:43;;;;;;;;;;;13.60;99.90;;;12.30;68.77;96685.50;10576857;27;2000;-78
2021/09/21 17:17:45;;;;;;;;;;;13.40;99.90;;;12.12;69.63;96692.13;10576548;28;1854;-81
2021/09/21 17:22:50;;;;;;;;;;;13.20;99.90;;;11.98;69.79;96703.63;10573368;28;2035;-80
2021/09/21 17:27:53;;;;;;;;;;;13.10;99.90;;;11.87;70.47;96713.53;10570891;28;1953;-80
2021/09/21 17:32:56;;;;;;;;;;;13.00;99.90;;;11.74;70.55;96720.13;10588560;28;2127;-80
2021/09/21 17:38:00;;;;;;;;;;;12.90;99.90;;;11.68;72.31;96714.97;10572414;28;1995;-79
2021/09/21 17:43:03;;;;;;;;;;;12.80;99.90;;;11.54;71.92;96733.44;10578524;27;1910;-80
2021/09/21 17:48:08;;;;;;;;;;;12.40;99.90;;;11.70;73.09;96735.16;10578210;28;2036;-79
2021/09/21 17:53:11;;;;;;;;;;;12.60;99.90;;;11.47;72.95;96746.28;10580993;27;2068;-80
2021/09/21 17:58:14;;;;;;;;;;;12.60;99.90;;;11.34;73.62;96756.41;10604112;28;1849;-79
2021/09/21 18:03:17;;;;;;;;;;;12.40;99.90;;;11.23;74.47;96765.44;10550839;27;2187;-79
2021/09/21 18:08:20;;;;;;;;;;;;;;;11.19;74.82;96767.00;10563257;27;1869;-79
2021/09/21 18:13:24;;;;;;;;;;;;;;;11.40;73.88;96786.06;10571973;27;2016;-79
2021/09/21 18:18:27;;;;;;;;;;;;;;;11.12;74.94;96795.16;10569578;28;2045;-78
2021/09/21 18:23:32;;;;;;;;;;;;;;;11.40;74.49;96796.84;10567227;28;2040;-80
2021/09/21 18:28:38;;;;;;;;;;;;;;;11.56;74.06;96790.53;10560078;28;1789;-80
2021/09/21 18:33:44;;;;;;;;;;;;;;;11.64;73.93;96796.28;10581259;27;1972;-80
2021/09/21 18:38:47;;;;;;;;;;;12.60;99.90;;;11.64;73.90;96790.06;10588535;28;2096;-77
2021/09/21 18:43:50;;;;;;;;;;;12.60;99.90;;;11.96;71.04;96800.91;10577903;28;2055;-76
2021/09/21 18:48:53;;;;;;;;;;;12.70;99.90;;;11.68;73.02;96807.34;10567963;27;1961;-79
2021/09/21 18:53:58;;;;;;;;;;;;;;;11.97;72.56;96815.19;10573361;28;2032;-76
2021/09/21 18:59:02;;;;;;;;;;;;;;;12.28;70.69;96808.97;10589470;27;1892;-81
2021/09/21 19:04:05;;;;;;;;;;;12.70;99.90;;;12.29;69.88;96813.28;10589985;27;2215;-82
2021/09/21 19:09:07;;;;;;;;;;;13.10;99.90;;;12.40;69.85;96804.16;10584775;28;1941;-82
2021/09/21 19:14:10;;;;;;;;;;;13.10;99.90;;;12.27;70.66;96810.00;10598052;27;2004;-81
2021/09/21 19:19:14;;;;;;;;;;;13.10;99.90;;;12.44;69.58;96813.38;10587531;27;2059;-81
2021/09/21 19:24:17;;;;;;;;;;;13.20;99.90;;;12.52;69.29;96813.94;10572580;28;2020;-82
2021/09/21 19:29:20;;;;;;;;;;;13.30;99.90;;;12.39;70.62;96813.31;10599460;27;1941;-81
2021/09/21 19:34:23;;;;;;;;;;;13.30;99.90;;;12.53;69.84;96810.19;10589888;27;2084;-81
2021/09/21 19:39:26;;;;;;;;;;;13.30;99.90;;;12.39;70.04;96810.63;10586280;27;2223;-83
2021/09/21 19:44:30;;;;;;;;;;;13.40;99.90;;;12.41;68.94;96816.59;10568663;28;2203;-80
2021/09/21 19:49:33;;;;;;;;;;;13.40;99.90;;;12.58;69.67;96815.59;10586652;28;1885;-82
2021/09/21 19:54:36;;;;;;;;;;;13.30;99.90;;;12.56;68.13;96817.75;10599356;27;2071;-81
2021/09/21 19:59:39;;;;;;;;;;;13.40;99.90;;;12.59;67.38;96830.72;10607393;27;1909;-80
2021/09/21 20:04:42;;;;;;;;;;;13.50;99.90;;;12.55;67.46;96829.63;10584011;27;1894;-81
2021/09/21 20:09:45;;;;;;;;;;;13.10;99.90;;;12.54;69.33;96836.09;10569337;28;2012;-80
2021/09/21 20:14:48;;;;;;;;;;;13.70;99.90;;;12.53;69.90;96823.66;10599527;27;1790;-81
2021/09/21 20:19:50;;;;;;;;;;;13.50;99.90;;;12.70;68.95;96827.81;10594143;27;2099;-79
2021/09/21 20:24:53;;;;;;;;;;;13.50;99.90;;;12.61;68.32;96817.78;10568602;28;2044;-80
2021/09/21 20:29:56;;;;;;;;;;;13.50;99.90;;;12.49;66.32;96825.28;10581845;28;1790;-81
2021/09/21 20:35:03;;;;;;;;;;;13.40;99.90;;;12.27;66.55;96814.59;10579202;28;2052;-81
2021/09/21 20:40:06;;;;;;;;;;;13.30;99.90;;;12.47;66.84;96814.75;10587472;27;2123;-81
2021/09/21 20:45:09;;;;;;;;;;;13.20;99.90;;;12.14;67.50;96813.16;10604233;27;1898;-81
2021/09/21 20:50:12;;;;;;;;;;;13.20;99.90;;;11.83;67.75;96804.84;10593677;28;1860;-81
2021/09/21 20:55:15;;;;;;;;;;;12.90;99.90;;;11.88;67.71;96812.13;10609762;28;1969;-80
2021/09/21 21:00:18;;;;;;;;;;;12.90;99.90;;;11.39;68.79;96809.50;10588865;28;1786;-80
2021/09/21 21:05:21;;;;;;;;;;;12.60;99.90;;;11.44;69.54;96811.41;10594832;27;2083;-80
2021/09/21 21:10:24;;;;;;;;;;;12.40;99.90;;;11.76;68.59;96806.06;10600521;27;1814;-80
2021/09/21 21:15:26;;;;;;;;;;;12.50;99.90;;;11.63;67.89;96810.78;10591102;28;2087;-80
2021/09/21 21:20:29;;;;;;;;;;;12.60;99.90;;;11.70;68.24;96807.06;10595957;28;1872;-81
2021/09/21 21:25:34;;;;;;;;;;;12.60;99.90;;;11.78;68.02;96803.94;10593900;27;2024;-81
2021/09/21 21:30:37;;;;;;;;;;;12.60;99.90;;;11.72;68.13;96792.31;10605926;28;2071;-80
2021/09/21 21:35:40;;;;;;;;;;;12.70;99.90;;;11.70;67.65;96794.41;10594154;28;1817;-81
2021/09/21 21:40:42;;;;;;;;;;;12.70;99.90;;;11.58;67.93;96804.56;10599092;28;2063;-79
2021/09/21 21:45:45;;;;;;;;;;;12.70;99.90;;;11.68;68.71;96798.44;10597194;27;1953;-79
2021/09/21 21:50:48;;;;;;;;;;;12.60;99.90;;;11.68;68.00;96795.75;10594941;28;1874;-79
2021/09/21 21:55:51;;;;;;;;;;;12.70;99.90;;;11.60;68.90;96794.34;10586699;28;2071;-80
2021/09/21 22:00:54;;;;;;;;;;;12.70;99.90;;;11.51;69.21;96785.09;10590777;27;1996;-79
2021/09/21 22:05:57;;;;;;;;;;;12.60;99.90;;;11.38;70.34;96791.69;10583973;28;2030;-79
2021/09/21 22:11:00;;;;;;;;;;;12.50;99.90;;;11.38;70.15;96797.88;10580653;28;1649;-80
2021/09/21 22:16:03;;;;;;;;;;;12.40;99.90;;;11.55;68.93;96811.25;10596443;28;2095;-82
2021/09/21 22:21:26;;;;;;;;;;;12.50;99.90;;;11.53;69.62;96831.44;10584767;28;2155;-80
2021/09/21 22:26:28;;;;;;;;;;;12.60;99.90;;;11.58;70.37;96826.13;10599515;28;2047;-79
2021/09/21 22:31:31;;;;;;;;;;;12.60;99.90;;;11.54;71.12;96811.53;10576294;28;1904;-80
2021/09/21 22:36:34;;;;;;;;;;;12.50;99.90;;;11.34;72.05;96810.25;10590780;28;2060;-80
2021/09/21 22:41:37;;;;;;;;;;;12.50;99.90;;;11.33;72.08;96811.31;10597938;27;1889;-79
2021/09/21 22:46:40;;;;;;;;;;;12.40;99.90;;;11.31;72.41;96816.13;10587769;28;2100;-79
2021/09/21 22:51:43;;;;;;;;;;;12.40;99.90;;;11.40;72.50;96805.72;10573671;28;2036;-79
2021/09/21 22:56:46;;;;;;;;;;;12.40;99.90;;;11.35;72.48;96803.78;10592660;28;1929;-78
2021/09/21 23:01:49;;;;;;;;;;;12.40;99.90;;;11.43;72.92;96794.44;10594416;28;2012;-79
2021/09/21 23:06:52;;;;;;;;;;;12.50;99.90;;;11.39;72.84;96804.09;10584587;28;1914;-79
2021/09/21 23:11:55;;;;;;;;;;;12.50;99.90;;;11.28;73.98;96802.38;10588342;28;2056;-79
2021/09/21 23:16:58;;;;;;;;;;;12.40;99.90;;;11.25;74.26;96792.09;10590438;28;1997;-81
2021/09/21 23:22:02;;;;;;;;;;;12.30;99.90;;;11.30;74.53;96781.38;10591850;28;1578;-80
2021/09/21 23:27:05;;;;;;;;;;;12.30;99.90;;;11.43;73.98;96788.25;10604150;28;2114;-80
2021/09/21 23:32:08;;;;;;;;;;;12.40;99.90;;;11.15;74.89;96792.00;10584464;28;2061;-80